Terminal Aerodrome Forecast
Issued by NWS

Home | Current Version | Previous Version | Graphics & Text | Print | Product List | Glossary On
Versions: 1 2 3 4 5 6 7 8 9 10 11 12 13 14 15 16 17 18 19 20 21 22 23 24 25
000
FTUS43 KBIS 261100
TAFJMS
TAF
KJMS 261132Z 2612/2712 36009KT P6SM SCT008 OVC015
     FM261500 34011KT P6SM BKN015 OVC022
     FM261800 32010KT P6SM BKN035
     FM262100 29007KT P6SM SCT025 SCT300
     FM270800 26005KT P6SM SCT018 BKN025=

USA.gov is the U.S. government's official web portal to all federal, state and local government web resources and services.